createdAt,value
2022-08-30T00:02:23.349Z,2.40
2022-08-30T00:04:51.998Z,2.50
2022-08-30T00:07:18.605Z,2.50
2022-08-30T00:09:45.161Z,2.40
2022-08-30T00:12:11.877Z,2.40
2022-08-30T00:14:39.924Z,2.42
2022-08-30T00:17:06.637Z,2.40
2022-08-30T00:19:33.362Z,1.90
2022-08-30T00:22:00.310Z,2.20
2022-08-30T00:24:27.206Z,2.53
2022-08-30T00:26:53.872Z,2.43
2022-08-30T00:29:20.583Z,2.50
2022-08-30T00:31:48.670Z,2.47
2022-08-30T00:34:15.507Z,2.28
2022-08-30T00:36:42.408Z,2.63
2022-08-30T00:39:08.955Z,2.53
2022-08-30T00:41:35.730Z,2.50
2022-08-30T00:44:03.941Z,2.50
2022-08-30T00:46:30.624Z,2.50
2022-08-30T00:49:03.205Z,2.30
2022-08-30T00:51:30.357Z,2.40
2022-08-30T00:53:57.865Z,2.50
2022-08-30T00:56:26.180Z,2.57
2022-08-30T00:58:56.915Z,2.30
2022-08-30T01:01:24.525Z,2.63
2022-08-30T01:03:51.601Z,2.58
2022-08-30T01:06:19.637Z,2.58
2022-08-30T01:08:47.763Z,2.35
2022-08-30T01:11:18.611Z,2.50
2022-08-30T01:13:46.069Z,2.50
2022-08-30T01:16:12.981Z,2.65
2022-08-30T01:18:40.335Z,2.70
2022-08-30T01:21:15.189Z,2.60
2022-08-30T01:23:45.687Z,2.60
2022-08-30T01:26:15.806Z,2.65
2022-08-30T01:28:46.204Z,2.50
2022-08-30T01:31:12.858Z,2.47
2022-08-30T01:33:39.524Z,2.90
2022-08-30T01:36:09.567Z,2.60
2022-08-30T01:38:39.836Z,2.50
2022-08-30T01:41:12.289Z,2.60
2022-08-30T01:43:39.176Z,2.73
2022-08-30T01:46:06.495Z,2.78
2022-08-30T01:48:33.256Z,2.88
2022-08-30T01:51:02.335Z,2.90
2022-08-30T01:53:29.333Z,2.67
2022-08-30T01:55:56.200Z,2.50
2022-08-30T01:58:24.779Z,2.30
2022-08-30T02:00:51.682Z,2.80
2022-08-30T02:03:18.542Z,2.60
2022-08-30T02:05:45.308Z,2.85
2022-08-30T02:08:11.888Z,2.70
2022-08-30T02:10:38.576Z,2.75
2022-08-30T02:13:05.192Z,2.70
2022-08-30T02:15:34.168Z,2.83
2022-08-30T02:18:08.668Z,2.65
2022-08-30T02:20:35.253Z,2.75
2022-08-30T02:23:01.867Z,3.17
2022-08-30T02:25:28.456Z,2.90
2022-08-30T02:27:55.061Z,3.30
2022-08-30T02:30:21.715Z,3.10
2022-08-30T02:32:49.712Z,2.78
2022-08-30T02:35:16.498Z,2.95
2022-08-30T02:37:43.102Z,3.20
2022-08-30T02:40:11.106Z,2.70
2022-08-30T02:42:37.858Z,2.63
2022-08-30T02:45:05.000Z,2.85
2022-08-30T02:47:32.396Z,2.97
2022-08-30T02:50:02.188Z,2.85
2022-08-30T02:52:28.913Z,3.45
2022-08-30T02:54:55.552Z,3.17
2022-08-30T02:57:22.311Z,3.00
2022-08-30T02:59:49.193Z,2.80
2022-08-30T03:02:15.884Z,3.00
2022-08-30T03:04:42.753Z,3.33
2022-08-30T03:07:11.931Z,3.50
2022-08-30T03:09:39.179Z,3.40
2022-08-30T03:12:05.966Z,3.00
2022-08-30T03:14:33.040Z,3.00
2022-08-30T03:16:59.710Z,2.90
2022-08-30T03:19:26.281Z,3.33
2022-08-30T03:21:52.996Z,3.30
2022-08-30T03:24:21.360Z,3.20
2022-08-30T03:26:48.014Z,3.33
2022-08-30T03:29:14.769Z,3.33
2022-08-30T03:31:53.264Z,3.20
2022-08-30T03:34:20.652Z,3.15
2022-08-30T03:36:47.241Z,3.40
2022-08-30T03:39:14.058Z,3.20
2022-08-30T03:41:42.054Z,3.17
2022-08-30T03:44:09.144Z,3.38
2022-08-30T03:46:37.630Z,3.45
2022-08-30T03:49:04.350Z,3.00
2022-08-30T03:51:31.455Z,3.53
2022-08-30T03:53:58.064Z,2.87
2022-08-30T03:56:24.799Z,3.03
2022-08-30T03:58:52.827Z,3.60
2022-08-30T04:01:19.803Z,3.20
2022-08-30T04:03:46.611Z,3.30
2022-08-30T04:06:13.312Z,3.20
2022-08-30T04:08:39.959Z,3.10
2022-08-30T04:11:06.718Z,3.13
2022-08-30T04:13:33.855Z,3.25
2022-08-30T04:16:02.147Z,3.35
2022-08-30T04:18:28.902Z,3.33
2022-08-30T04:20:55.927Z,3.47
2022-08-30T04:23:22.712Z,4.00
2022-08-30T04:25:49.328Z,3.27
2022-08-30T04:28:15.900Z,3.45
2022-08-30T04:30:44.406Z,3.65
2022-08-30T04:33:13.714Z,3.88
2022-08-30T04:35:41.280Z,3.83
2022-08-30T04:38:07.978Z,3.40
2022-08-30T04:40:34.624Z,3.60
2022-08-30T04:43:01.413Z,3.58
2022-08-30T04:45:28.072Z,3.70
2022-08-30T04:47:56.421Z,3.53
2022-08-30T04:50:25.560Z,3.63
2022-08-30T04:52:52.133Z,3.65
2022-08-30T04:55:20.384Z,3.80
2022-08-30T04:57:47.249Z,3.78
2022-08-30T05:00:14.769Z,3.67
2022-08-30T05:02:42.072Z,3.78
2022-08-30T05:05:09.863Z,3.63
2022-08-30T05:07:38.328Z,3.70
2022-08-30T05:10:10.484Z,3.43
2022-08-30T05:12:37.953Z,3.40
2022-08-30T05:15:05.282Z,3.78
2022-08-30T05:17:31.872Z,4.00
2022-08-30T05:20:00.455Z,3.22
2022-08-30T05:22:27.024Z,3.80
2022-08-30T05:24:55.058Z,3.60
2022-08-30T05:27:21.615Z,3.70
2022-08-30T05:29:48.380Z,3.88
2022-08-30T05:32:14.986Z,3.85
2022-08-30T05:34:41.590Z,3.38
2022-08-30T05:37:08.143Z,3.55
2022-08-30T05:39:51.478Z,3.83
2022-08-30T05:42:20.041Z,3.90
2022-08-30T05:44:51.635Z,4.18
2022-08-30T05:47:18.502Z,4.70
2022-08-30T05:49:45.171Z,3.53
2022-08-30T05:52:12.023Z,4.63
2022-08-30T05:54:38.619Z,4.43
2022-08-30T05:57:05.324Z,4.27
2022-08-30T05:59:33.364Z,4.35
2022-08-30T06:02:00.085Z,4.07
2022-08-30T06:04:27.055Z,4.32
2022-08-30T06:06:53.794Z,3.95
2022-08-30T06:09:20.634Z,3.90
2022-08-30T06:11:47.605Z,4.00
2022-08-30T06:14:14.707Z,4.07
2022-08-30T06:16:43.423Z,4.13
2022-08-30T06:19:10.001Z,3.95
2022-08-30T06:21:38.760Z,4.45
2022-08-30T06:24:06.940Z,4.00
2022-08-30T06:26:37.400Z,4.70
2022-08-30T06:29:04.541Z,4.95
2022-08-30T06:31:31.180Z,5.03
2022-08-30T06:33:59.301Z,5.20
2022-08-30T06:36:26.843Z,4.65
2022-08-30T06:38:56.257Z,5.00
2022-08-30T06:41:25.272Z,5.23
2022-08-30T06:43:52.443Z,5.00
2022-08-30T06:46:21.044Z,4.93
2022-08-30T06:48:48.486Z,4.78
2022-08-30T06:51:20.264Z,5.13
2022-08-30T06:53:47.417Z,5.10
2022-08-30T06:56:16.654Z,5.30
2022-08-30T06:58:44.628Z,5.28
2022-08-30T07:01:13.033Z,5.50
2022-08-30T07:03:39.718Z,4.90
2022-08-30T07:06:07.184Z,5.70
2022-08-30T07:08:35.566Z,5.23
2022-08-30T07:11:02.186Z,5.20
2022-08-30T07:13:28.941Z,5.50
2022-08-30T07:15:55.562Z,6.20
2022-08-30T07:18:22.323Z,5.50
2022-08-30T07:20:48.909Z,6.10
2022-08-30T07:23:15.750Z,5.53
2022-08-30T07:25:43.792Z,6.00
2022-08-30T07:28:11.197Z,5.78
2022-08-30T07:30:38.992Z,5.60
2022-08-30T07:33:06.107Z,5.97
2022-08-30T07:35:32.772Z,5.20
2022-08-30T07:37:59.525Z,5.90
2022-08-30T07:40:26.768Z,5.27
2022-08-30T07:42:54.826Z,5.43
2022-08-30T07:45:21.431Z,5.47
2022-08-30T07:47:48.080Z,5.15
2022-08-30T07:50:14.832Z,5.53
2022-08-30T07:52:41.422Z,5.57
2022-08-30T07:55:09.097Z,5.53
2022-08-30T07:57:35.742Z,5.28
2022-08-30T08:00:05.059Z,5.30
2022-08-30T08:02:31.728Z,5.07
2022-08-30T08:04:58.563Z,5.18
2022-08-30T08:07:25.258Z,4.37
2022-08-30T08:09:51.996Z,5.17
2022-08-30T08:12:18.569Z,5.22
2022-08-30T08:14:45.172Z,4.72
2022-08-30T08:17:13.167Z,4.65
2022-08-30T08:19:39.864Z,4.53
2022-08-30T08:22:20.541Z,4.00
2022-08-30T08:24:48.122Z,4.93
2022-08-30T08:27:14.979Z,4.30
2022-08-30T08:29:41.578Z,4.70
2022-08-30T08:32:08.184Z,4.03
2022-08-30T08:34:36.621Z,4.50
2022-08-30T08:37:03.609Z,5.27
2022-08-30T08:39:30.236Z,4.77
2022-08-30T08:42:07.681Z,4.68
2022-08-30T08:47:17.485Z,4.32
2022-08-30T08:49:49.635Z,4.50
2022-08-30T08:52:20.600Z,4.17
2022-08-30T08:54:52.388Z,4.25
2022-08-30T08:57:22.697Z,4.07
2022-08-30T08:59:51.275Z,3.83
2022-08-30T09:02:23.635Z,4.03
2022-08-30T09:04:56.283Z,4.53
2022-08-30T09:07:25.116Z,3.93
2022-08-30T09:09:52.065Z,4.32
2022-08-30T09:12:19.053Z,4.03
2022-08-30T09:14:51.364Z,4.10
2022-08-30T09:17:23.271Z,3.42
2022-08-30T09:20:00.477Z,4.23
2022-08-30T09:22:34.304Z,3.95
2022-08-30T09:25:04.790Z,4.13
2022-08-30T09:27:34.073Z,4.13
2022-08-30T09:30:05.496Z,3.58
2022-08-30T09:32:36.319Z,4.10
2022-08-30T09:35:06.997Z,4.05
2022-08-30T09:37:38.312Z,4.00
2022-08-30T09:40:11.798Z,3.70
2022-08-30T09:42:39.062Z,4.40
2022-08-30T09:45:17.592Z,3.50
2022-08-30T09:47:44.407Z,3.20
2022-08-30T09:50:15.383Z,3.40
2022-08-30T09:52:56.788Z,3.58
2022-08-30T09:55:40.932Z,3.15
2022-08-30T09:58:14.233Z,3.53
2022-08-30T10:00:47.491Z,4.07
2022-08-30T10:03:36.345Z,3.70
2022-08-30T10:06:18.279Z,3.40
2022-08-30T10:08:56.435Z,3.20
2022-08-30T10:11:29.596Z,3.90
2022-08-30T10:14:27.340Z,3.63
2022-08-30T10:16:59.961Z,3.00
2022-08-30T10:19:38.701Z,2.33
2022-08-30T10:22:14.175Z,2.35
2022-08-30T10:24:46.690Z,2.40
2022-08-30T10:27:20.621Z,2.43
2022-08-30T10:29:51.230Z,2.22
2022-08-30T10:32:24.430Z,2.13
2022-08-30T10:34:56.220Z,2.42
2022-08-30T10:37:27.097Z,2.90
2022-08-30T10:39:57.825Z,2.50
2022-08-30T10:42:27.535Z,2.75
2022-08-30T10:44:59.360Z,2.80
2022-08-30T10:47:36.223Z,2.55
2022-08-30T10:50:09.628Z,2.30
2022-08-30T10:52:42.872Z,2.30
2022-08-30T10:55:17.633Z,2.90
2022-08-30T10:57:44.811Z,2.67
2022-08-30T11:00:14.728Z,2.80
2022-08-30T11:03:10.422Z,2.75
2022-08-30T11:06:16.407Z,2.47
2022-08-30T11:09:10.252Z,2.83
2022-08-30T11:11:52.300Z,2.78
2022-08-30T11:14:20.414Z,2.65
2022-08-30T11:16:55.378Z,2.60
2022-08-30T11:19:26.482Z,2.80
2022-08-30T11:22:11.725Z,2.67
2022-08-30T11:25:11.143Z,3.13
2022-08-30T11:27:44.684Z,2.65
2022-08-30T11:30:51.371Z,2.80
2022-08-30T11:33:43.398Z,3.03
2022-08-30T11:36:56.731Z,3.10
2022-08-30T11:39:51.825Z,3.10
2022-08-30T11:42:29.445Z,3.10
2022-08-30T11:45:29.810Z,2.83
2022-08-30T11:47:59.882Z,3.30
2022-08-30T11:50:32.437Z,2.90
2022-08-30T11:53:03.198Z,3.10
2022-08-30T11:55:54.706Z,3.28
2022-08-30T11:58:36.724Z,3.15
2022-08-30T12:01:42.070Z,3.10
2022-08-30T12:04:15.202Z,3.33
2022-08-30T12:06:52.132Z,3.20
2022-08-30T12:10:01.615Z,3.00
2022-08-30T12:12:51.935Z,3.35
2022-08-30T12:15:55.686Z,2.80
2022-08-30T12:18:29.879Z,3.40
2022-08-30T12:21:14.168Z,3.33
2022-08-30T12:23:49.881Z,3.40
2022-08-30T12:26:30.864Z,3.53
2022-08-30T12:29:14.162Z,3.50
2022-08-30T12:31:45.347Z,3.13
2022-08-30T12:34:20.238Z,3.63
2022-08-30T12:36:55.166Z,3.53
2022-08-30T12:39:24.267Z,3.30
2022-08-30T12:41:51.383Z,3.90
2022-08-30T12:44:22.076Z,3.85
2022-08-30T12:46:58.990Z,3.60
2022-08-30T12:49:30.176Z,3.20
2022-08-30T12:52:14.796Z,3.88
2022-08-30T12:54:42.344Z,3.70
2022-08-30T12:57:19.565Z,3.53
2022-08-30T13:00:01.794Z,3.40
2022-08-30T13:02:47.050Z,3.65
2022-08-30T13:05:48.365Z,3.80
2022-08-30T13:08:19.028Z,3.40
2022-08-30T13:10:54.973Z,3.40
2022-08-30T13:13:34.525Z,3.35
2022-08-30T13:16:11.067Z,3.38
2022-08-30T13:18:39.225Z,3.70
2022-08-30T13:21:21.465Z,3.40
2022-08-30T13:23:48.592Z,3.70
2022-08-30T13:26:20.479Z,3.20
2022-08-30T13:28:52.049Z,3.67
2022-08-30T13:31:18.981Z,3.78
2022-08-30T13:33:47.449Z,3.50
2022-08-30T13:36:14.767Z,3.47
2022-08-30T13:38:42.025Z,3.60
2022-08-30T13:41:10.889Z,3.50
2022-08-30T13:44:09.369Z,3.22
2022-08-30T13:46:25.079Z,3.40
2022-08-30T13:48:58.951Z,3.33
2022-08-30T13:51:26.263Z,3.10
2022-08-30T13:53:53.575Z,2.97
2022-08-30T13:56:20.716Z,3.60
2022-08-30T13:58:48.010Z,3.50
2022-08-30T14:01:14.763Z,3.47
2022-08-30T14:04:13.373Z,3.10
2022-08-30T14:06:33.997Z,3.67
2022-08-30T14:09:03.904Z,3.60
2022-08-30T14:11:31.358Z,3.07
2022-08-30T14:16:44.856Z,3.90
2022-08-30T14:19:13.510Z,3.40
2022-08-30T14:21:42.014Z,3.10
2022-08-30T14:24:10.448Z,3.40
2022-08-30T14:26:39.193Z,3.30
2022-08-30T14:29:09.625Z,3.50
2022-08-30T14:31:36.798Z,3.38
2022-08-30T14:34:04.122Z,3.28
2022-08-30T14:36:32.216Z,3.70
2022-08-30T14:39:00.278Z,3.80
2022-08-30T14:41:27.101Z,3.13
2022-08-30T14:43:53.733Z,3.45
2022-08-30T14:46:20.603Z,3.30
2022-08-30T14:48:48.417Z,3.50
2022-08-30T14:51:20.864Z,3.38
2022-08-30T14:53:48.627Z,3.40
2022-08-30T14:56:19.664Z,3.58
2022-08-30T14:58:47.997Z,3.20
2022-08-30T15:01:14.895Z,3.97
2022-08-30T15:03:42.509Z,3.92
2022-08-30T15:06:09.438Z,3.85
2022-08-30T15:08:37.848Z,3.30
2022-08-30T15:11:08.444Z,3.28
2022-08-30T15:13:37.056Z,3.37
2022-08-30T15:16:10.590Z,3.45
2022-08-30T15:18:37.642Z,3.65
2022-08-30T15:21:04.436Z,3.22
2022-08-30T15:23:31.175Z,3.55
2022-08-30T15:25:57.768Z,3.20
2022-08-30T15:28:24.347Z,3.45
2022-08-30T15:30:52.428Z,3.30
2022-08-30T15:33:19.100Z,3.38
2022-08-30T15:35:45.638Z,3.38
2022-08-30T15:38:12.436Z,3.47
2022-08-30T15:40:39.336Z,3.33
2022-08-30T15:43:06.111Z,3.80
2022-08-30T15:45:32.692Z,3.70
2022-08-30T15:48:01.424Z,3.67
2022-08-30T15:50:28.871Z,3.57
2022-08-30T15:52:56.538Z,3.33
2022-08-30T15:55:23.474Z,3.90
2022-08-30T15:57:50.230Z,3.50
2022-08-30T16:00:17.506Z,3.83
2022-08-30T16:02:44.349Z,3.40
2022-08-30T16:05:12.478Z,3.22
2022-08-30T16:07:40.991Z,3.28
2022-08-30T16:10:08.968Z,3.20
2022-08-30T16:12:35.563Z,3.47
2022-08-30T16:15:02.173Z,3.70
2022-08-30T16:17:28.758Z,3.60
2022-08-30T16:19:58.912Z,3.30
2022-08-30T16:22:27.117Z,3.60
2022-08-30T16:24:54.157Z,3.40
2022-08-30T16:27:21.305Z,3.20
2022-08-30T16:29:48.063Z,3.13
2022-08-30T16:32:17.118Z,3.35
2022-08-30T16:34:43.699Z,3.22
2022-08-30T16:37:10.337Z,3.47
2022-08-30T16:39:38.418Z,3.40
2022-08-30T16:42:06.678Z,3.22
2022-08-30T16:44:33.613Z,3.25
2022-08-30T16:47:01.459Z,3.03
2022-08-30T16:49:28.098Z,3.40
2022-08-30T16:51:55.114Z,2.83
2022-08-30T16:54:22.778Z,3.00
2022-08-30T16:56:51.385Z,3.40
2022-08-30T16:59:18.923Z,3.10
2022-08-30T17:01:45.740Z,3.60
2022-08-30T17:04:19.314Z,3.10
2022-08-30T17:07:01.896Z,3.70
2022-08-30T17:09:29.167Z,3.17
2022-08-30T17:11:57.131Z,3.35
2022-08-30T17:14:29.248Z,3.08
2022-08-30T17:16:56.363Z,3.23
2022-08-30T17:19:27.075Z,3.05
2022-08-30T17:21:55.552Z,3.10
2022-08-30T17:24:22.203Z,3.03
2022-08-30T17:26:51.226Z,3.30
2022-08-30T17:29:19.189Z,3.43
2022-08-30T17:31:51.234Z,3.40
2022-08-30T17:34:18.379Z,3.17
2022-08-30T17:36:45.361Z,3.00
2022-08-30T17:39:12.922Z,3.20
2022-08-30T17:41:41.118Z,3.20
2022-08-30T17:44:19.306Z,3.30
2022-08-30T17:46:46.066Z,3.33
2022-08-30T17:49:13.080Z,3.08
2022-08-30T17:51:40.043Z,3.42
2022-08-30T17:54:06.674Z,3.40
2022-08-30T17:59:24.786Z,3.28
2022-08-30T18:01:53.691Z,3.50
2022-08-30T18:04:21.601Z,3.20
2022-08-30T18:06:51.349Z,3.00
2022-08-30T18:09:18.541Z,3.40
2022-08-30T18:11:45.550Z,3.30
2022-08-30T18:14:15.770Z,3.22
2022-08-30T18:16:53.287Z,3.40
2022-08-30T18:19:21.488Z,3.43
2022-08-30T18:21:48.079Z,3.60
2022-08-30T18:24:15.707Z,4.00
2022-08-30T18:26:43.241Z,3.83
2022-08-30T18:29:10.217Z,3.63
2022-08-30T18:31:36.860Z,3.73
2022-08-30T18:34:05.003Z,3.40
2022-08-30T18:36:31.625Z,3.45
2022-08-30T18:38:58.398Z,3.67
2022-08-30T18:41:25.937Z,3.78
2022-08-30T18:44:06.043Z,3.20
2022-08-30T18:46:39.345Z,3.40
2022-08-30T18:49:24.144Z,3.42
2022-08-30T18:51:50.764Z,3.50
2022-08-30T18:54:17.507Z,3.42
2022-08-30T18:56:45.609Z,3.83
2022-08-30T18:59:12.805Z,3.50
2022-08-30T19:01:40.613Z,3.40
2022-08-30T19:04:07.771Z,3.28
2022-08-30T19:06:37.747Z,3.50
2022-08-30T19:09:09.114Z,3.30
2022-08-30T19:11:36.239Z,3.25
2022-08-30T19:14:05.146Z,3.63
2022-08-30T19:16:33.660Z,3.25
2022-08-30T19:19:00.550Z,2.92
2022-08-30T19:21:27.152Z,3.40
2022-08-30T19:23:55.346Z,3.70
2022-08-30T19:26:22.078Z,3.65
2022-08-30T19:28:48.674Z,3.40
2022-08-30T19:31:15.309Z,3.45
2022-08-30T19:33:41.965Z,3.63
2022-08-30T19:36:08.653Z,3.60
2022-08-30T19:38:36.725Z,3.50
2022-08-30T19:41:05.870Z,3.30
2022-08-30T19:43:32.465Z,3.70
2022-08-30T19:46:00.146Z,3.50
2022-08-30T19:48:29.456Z,3.50
2022-08-30T19:51:00.077Z,3.33
2022-08-30T19:53:27.176Z,3.40
2022-08-30T19:55:54.368Z,3.10
2022-08-30T19:58:22.441Z,3.63
2022-08-30T20:01:01.031Z,3.75
2022-08-30T20:03:37.088Z,3.43
2022-08-30T20:06:03.943Z,3.15
2022-08-30T20:08:31.549Z,3.22
2022-08-30T20:10:58.143Z,3.65
2022-08-30T20:13:26.237Z,3.10
2022-08-30T20:15:55.812Z,3.60
2022-08-30T20:18:23.350Z,3.17
2022-08-30T20:20:50.167Z,3.38
2022-08-30T20:23:21.636Z,3.72
2022-08-30T20:24:26.360Z,2.97
2022-08-30T20:25:50.053Z,3.38
2022-08-30T20:28:17.108Z,3.70
2022-08-30T20:30:45.210Z,3.50
2022-08-30T20:33:11.851Z,3.40
2022-08-30T20:35:38.542Z,3.38
2022-08-30T20:38:05.239Z,3.13
2022-08-30T20:40:33.068Z,3.35
2022-08-30T20:42:59.660Z,3.67
2022-08-30T20:45:30.954Z,3.43
2022-08-30T20:47:59.136Z,3.40
2022-08-30T20:50:25.826Z,3.50
2022-08-30T20:52:52.509Z,3.72
2022-08-30T20:55:19.211Z,3.50
2022-08-30T20:57:45.816Z,3.60
2022-08-30T21:00:13.469Z,3.27
2022-08-30T21:02:42.755Z,3.38
2022-08-30T21:05:16.213Z,3.13
2022-08-30T21:07:43.495Z,3.28
2022-08-30T21:10:10.218Z,3.63
2022-08-30T21:12:36.907Z,3.07
2022-08-30T21:15:27.019Z,3.70
2022-08-30T21:17:50.594Z,3.17
2022-08-30T21:20:18.610Z,3.25
2022-08-30T21:22:45.184Z,3.35
2022-08-30T21:25:11.864Z,3.90
2022-08-30T21:27:38.451Z,3.23
2022-08-30T21:30:05.781Z,3.23
2022-08-30T21:32:32.383Z,3.30
2022-08-30T21:34:59.066Z,2.85
2022-08-30T21:37:27.063Z,3.30
2022-08-30T21:39:53.688Z,3.15
2022-08-30T21:42:20.378Z,3.17
2022-08-30T21:44:46.969Z,3.40
2022-08-30T21:47:13.560Z,3.35
2022-08-30T21:49:49.888Z,3.30
2022-08-30T21:52:16.560Z,3.22
2022-08-30T21:54:44.502Z,3.30
2022-08-30T21:57:11.056Z,3.17
2022-08-30T21:59:37.819Z,3.70
2022-08-30T22:02:04.449Z,3.28
2022-08-30T22:04:33.664Z,3.42
2022-08-30T22:07:02.719Z,3.05
2022-08-30T22:09:30.823Z,3.45
2022-08-30T22:11:58.887Z,3.70
2022-08-30T22:14:26.555Z,3.33
2022-08-30T22:16:53.906Z,3.50
2022-08-30T22:19:23.239Z,3.30
2022-08-30T22:21:50.815Z,3.55
2022-08-30T22:24:17.415Z,3.25
2022-08-30T22:26:45.543Z,3.73
2022-08-30T22:29:14.551Z,3.33
2022-08-30T22:31:43.266Z,3.47
2022-08-30T22:34:10.459Z,3.70
2022-08-30T22:36:38.076Z,3.60
2022-08-30T22:39:06.553Z,3.75
2022-08-30T22:41:33.556Z,3.33
2022-08-30T22:44:00.600Z,3.63
2022-08-30T22:46:34.206Z,3.00
2022-08-30T22:49:02.190Z,3.10
2022-08-30T22:51:29.091Z,3.90
2022-08-30T22:53:55.765Z,3.38
2022-08-30T22:56:25.377Z,3.77
2022-08-30T22:58:52.787Z,3.60
2022-08-30T23:01:21.871Z,3.63
2022-08-30T23:03:50.809Z,3.75
2022-08-30T23:06:17.807Z,3.70
2022-08-30T23:08:44.662Z,4.10
2022-08-30T23:11:11.404Z,3.70
2022-08-30T23:13:38.005Z,3.58
2022-08-30T23:16:06.460Z,3.65
2022-08-30T23:18:34.003Z,4.00
2022-08-30T23:21:10.906Z,4.03
2022-08-30T23:23:38.064Z,3.43
2022-08-30T23:26:04.904Z,3.50
2022-08-30T23:28:31.466Z,3.80
2022-08-30T23:31:08.328Z,3.92
2022-08-30T23:33:34.886Z,3.75
2022-08-30T23:36:08.210Z,3.70
2022-08-30T23:38:34.858Z,3.60
2022-08-30T23:41:01.512Z,4.13
2022-08-30T23:43:28.113Z,4.03
2022-08-30T23:45:55.690Z,3.90
2022-08-30T23:48:22.438Z,4.15
2022-08-30T23:50:48.980Z,4.33
2022-08-30T23:53:17.088Z,4.17
2022-08-30T23:55:43.795Z,3.88
2022-08-30T23:58:10.437Z,4.53
